Timeline UpdatesTrip UpdatesNews PostsPvt PostsTravel TipsAdmin PostsConv PostsFollowed PostsChat RequestsBlog PostsPNR Posts

Disclaimer
Search
 
 
Fri Jul 25, 2014 23:47:22 ISTHomeTrainsΣChainsAtlasPNRForumGalleryNewsFAQTripsMembersLoginFeedback
No Recent News for this Train
Other Trains in the News **new
Latest...
⇐ Return Journey: Train# 53043

53044/Rajgir - Howrah Passenger (UnReserved)

Nov 04 2013 (6:59AM)
Change Departure Station:
Change Arrival Station:
Post a Train Travel TipPost a Train Travel Tip **new
Post a Comment/Question/Picture/VideoPost a Comment/Question/Picture/Video
Pantry/Catering
✕ NO Pantry Car
✕ NO Catering
RSA - Rake Sharing
Rake/Coach Composition
Loco
HWH WDM 3A/3D
News    PNR    Forum    Time-Table    Availability    Fare Chart    Map    Arr/Dep History    Trips    Gallery    ΣChains    X/O    Timeline    
Travel Time: 16h 12m    48 halts    Distance: 480 km    Avg Speed: 29 km/hr
Type: Passenger
Zone: ER/Eastern
Departs @ 19:58
Platform# 1
SMTWTFS
Jamalpur Junction/JMP 
Arrives @ 12:10 +1 night
Platform# 1
SMTWTFS
Kolkata Howrah Junction/HWH 

48 halts. 101 intermediate Stations between Jamalpur Junction and Kolkata Howrah Junction

Show ALL intermediate Stations  Show Old Time-Table

#CodeStation NameX/OArrivesAvgDepartsAvgHaltPFDay#KmSpeedElevZoneAddress
1RGDRajgir (3)  -12:40---1-176.73871mECRRajgir, Bihar
2NLDNalanda (2)  12:58-12:59-1m--1-165.44063mECRNational Highway 82, Bihar
3BEHSBihar Sharif (2)  13:18-13:23-5m--1-152.93656mECR06112-222306, Bihar
4WENAWena (2)  13:46-13:47-1m--1-138.9947mECRWena, Bihar
5HRTHarnaut (3)X  14:21-14:28-7m--1-133.85349mECRHarnaut, Bihar
6BKPBakhtiyarpur Junction (5)XO  14:40-15:10-30m--1-123.16851mECRPatna, Bihar
7ATLAthmal Gola (2)  15:18-15:19-1m--1-114.05052mECRPatna, Bihar
8BARHBarh (3)X  15:30-15:32-2m--1-104.97849mECRBarh, Bihar
9PHKPunarakh  15:40-15:41-1m--1-94.52951mECRPunarakh, Bihar
10MORMorXO  15:58-16:27-29m--1-86.24846mECRMor, Bihar
11MKAMokama Junction (3)  16:36-16:40-4m--1-79.05648mECRPatna, Bihar
12HTZHathidah Junction (2)X  16:49-16:51-2m11-70.64650mECRMusahari, Bihar
13RDUMRampur Dumra (3)O  16:56-16:57-1m--1-66.83746mECRNational Highway 80, Bihar
14BRYABarhiya (3)  17:06-17:08-2m--1-61.22247mECRBarahiya, Bihar
15MKBMankatha  17:34-17:40-6m--1-51.83047mECRNational Highway 80, Bihar
16LKRLuckeesarai Junction (2)X  17:51-17:53-2m--1-46.21252mECRLakhisarai, Bihar
17KIULKiul Junction (5)X  18:00-18:25-25m--1-44.83653mECRDist. Lakhisarai, Bihar
18DNREDhanauri  18:35-18:37-2m--1-38.84948mERNational Highway 80, Bihar
19URENUrenX  18:43-18:45-2m--1-33.95845mERUren, Bihar
20KJHKajra (2)  18:50-18:51-1m--1-29.16250mERLakhisarai District, Bihar
21AHAAbhaipurX  18:58-18:59-1m--1-21.84852mERAbhaipur, Bihar
22MSDNMasudan  19:04-19:05-1m--1-17.86045mERMasudan, Bihar
23DRHDharhara (2)  19:11-19:12-1m--1-11.81855mERDharhara, Bihar
24DRTPDasharathpur  19:30-19:31-1m--1-6.43248mERDharhara, Bihar
25JMP»Jamalpur Junction (4)»  19:43-19:58-15m110.04259mERJamalpur 06344-243101, Bihar
26RPURRatanpur  20:07-20:08-1m--16.35846mERRatanpur Railway Station, Bihar
27BUPBariarpur (3)  20:13-20:14-1m--111.11142mERMunger, Bihar
28KPRDKalyanpur Road  20:21-20:22-1m--112.41040mERMunger, Bihar
29GNNAGangani  20:29-20:30-1m--113.613338mERGangania, Bihar
30SGGSultanGanj  20:37-20:40-3m--129.15042mERSultanganj, Bihar
31AKNAkbarnagar  20:52-20:53-1m--139.14439mERTilakpur, Bihar
32NATNathnagar  21:01-21:02-1m--149.34048mERBhagalpur, Bihar
33BGPBhagalpur Junction (6)X  21:09-21:19-10m--154.05049mERBhagalpur, Bihar
34SBOSabaur (3)  21:28-21:29-1m--161.64442mERSabour, Bihar
35LMMLailakh Mamalkha (2)  21:38-21:39-1m--168.25836mERLailakh Mamlkha, Bihar
36GGAGhoga (2)  21:45-21:47-2m--174.06942mERGhoga, Bihar
37EKCEkchari (1)  21:52-21:53-1m1179.75237mERNational Highway 80, Bihar
38CLGKahalgaon (2)  21:58-22:00-2m1184.14944mERBhagalpur, Bihar
39SVRPShivanarayanpur (2)X  22:14-22:38-24m--195.54847mERShivanarayanpur, Bihar
40PPTPirpainti (2)  22:49-22:51-2m--1104.45653mERBhagalpur, Bihar
41MZCMirza Cheuki (3)X  23:00-23:06-6m31112.92638mERBihar, Bihar
42SBGSahibganj Junction (3)X  23:41-23:59-18m11128.05438mERSahibganj, Jharkhand
43SLJSakrigali Junction (3)X  00:08-00:09-1m--2136.05045mERSakrigali, Jharkhand
44MJPMaharajpur (2)  00:16-00:17-1m--2141.97134mERMoharajpur, Jharkhand
45TLJTaljhari  00:27-00:28-1m--2153.86538mERTaljhari, Jharkhand
46KXEKalian Chak  00:33-00:34-1m--2159.28145mERKalian Chak, Jharkhand
47TPHTinpahar Junction (3)  00:39-00:42-3m22165.95745mERBamangawan, Jharkhand
48BKLEBakudi (3)  00:51-00:52-1m--2174.52665mERBakudi, Jharkhand
49BHWBarharwa Junction (3)X  01:10-01:20-10m22182.44436mERBarharwa, Jharkhand
50GMANGumani (3)X  01:30-01:31-1m--2189.86731mERGumani, Jharkhand
51KLPKotalpukur (3)  01:37-01:39-2m--2196.43840mERKotalpukur, Jharkhand
52TBBTilbhita (3)XO  01:51-01:55-4m--2204.01731mERTilbhita, Jharkhand
53PKRPakur (2)X  02:10-02:11-1m22208.24237mERDist:- Pakur, Jharkhand
54RJGRajgram (3)  02:26-02:27-1m22218.87032mERRajgram, West Bengal
55MRRMurarai (3)X  02:37-02:38-1m--2230.47036mERMurarai, West Bengal
56NHTNalhati Junction (4)X  02:52-02:54-2m22246.72948mERNalhati, West Bengal
57RPHRampurhat (3)  03:23-03:43-20m--2260.86741mERDIST - Birbhum, West Bengal
58SNTSainthia Junction (4)  04:08-04:13-5m42288.84758mERDist - Birbhum, West Bengal
59AMPAhmadpur Junction (3)O  04:30-04:35-5m--2302.02846mERDist - Birbhum, West Bengal
60PNEPrantik (3)  05:08-05:09-1m--2317.25148mERPrantik, West Bengal
61BHPBolpur Shantiniketan (3)  05:14-05:19-5m--2321.56059mERBolpur, West Bengal
62BDHBhedia (2)  05:27-05:28-1m--2329.55541mERDist - Bardhaman, West Bengal
63GKHGuskara (2)X  05:40-05:41-1m12340.46041mERDist - Bardhaman, West Bengal
64BPSBanpas (3)  05:51-05:52-1m--2350.51146mERDist - Bardhaman, West Bengal
65KANKhana Junction (5)X  06:45-06:46-1m--2360.25642mERDist - Bardhaman, West Bengal
66BWNBarddhaman Junction (8)XO  07:00-07:20-20m--2373.25034mERDist - Barddhaman, West Bengal
67MYMMemari (4)  07:50-08:00-10m--2398.32225mERMemari, West Bengal
68MUGMagra (3)  09:38-09:43-5m--2433.7715mERMagra, West Bengal
69BDCBandel Junction (7)  10:44-10:50-6m--2440.53214mERdist - HOOGHLY, West Bengal
70CNSChuchura (3)  10:57-10:58-1m--2444.33615mERDist - HOOGHLY - 712102, West Bengal
71CGRChandan Nagar (3)  11:03-11:05-2m--2447.35316mERDist -HOOGHLY - 712136, West Bengal
72SHESeoraphuli Junction (6)  11:17-11:19-2m--2457.93013mERBaidyabati, West Bengal
73SRPSerampore (4)X  11:24-11:28-4m--2460.42811mERdist - hooghly, West Bengal
74HWH•Kolkata Howrah Junction (23)•  12:10--12480.1-10mERHowrah 711101, West Bengal
Scroll to Top
Scroll to Bottom